sensor_id;sensor_type;location;lat;lon;timestamp;P1;durP1;ratioP1;P2;durP2;ratioP2
64894;SDS011;51588;53.702;10.208;2022-08-25T00:01:08;3.73;;;2.83;;
64894;SDS011;51588;53.702;10.208;2022-08-25T00:03:35;3.57;;;2.97;;
64894;SDS011;51588;53.702;10.208;2022-08-25T00:06:04;3.20;;;2.40;;
64894;SDS011;51588;53.702;10.208;2022-08-25T00:08:31;3.10;;;2.73;;
64894;SDS011;51588;53.702;10.208;2022-08-25T00:11:01;3.83;;;2.97;;
64894;SDS011;51588;53.702;10.208;2022-08-25T00:13:28;2.70;;;2.50;;
64894;SDS011;51588;53.702;10.208;2022-08-25T00:15:55;3.57;;;3.20;;
64894;SDS011;51588;53.702;10.208;2022-08-25T00:18:22;2.80;;;2.53;;
64894;SDS011;51588;53.702;10.208;2022-08-25T00:20:48;2.70;;;2.33;;
64894;SDS011;51588;53.702;10.208;2022-08-25T00:23:17;3.47;;;3.00;;
64894;SDS011;51588;53.702;10.208;2022-08-25T00:25:44;3.83;;;3.10;;
64894;SDS011;51588;53.702;10.208;2022-08-25T00:28:10;3.20;;;2.77;;
64894;SDS011;51588;53.702;10.208;2022-08-25T00:30:38;3.43;;;2.70;;
64894;SDS011;51588;53.702;10.208;2022-08-25T00:33:04;2.80;;;2.60;;
64894;SDS011;51588;53.702;10.208;2022-08-25T00:35:31;3.10;;;2.80;;
64894;SDS011;51588;53.702;10.208;2022-08-25T00:37:57;2.93;;;2.73;;
64894;SDS011;51588;53.702;10.208;2022-08-25T00:40:26;3.20;;;2.90;;
64894;SDS011;51588;53.702;10.208;2022-08-25T00:42:53;3.40;;;3.10;;
64894;SDS011;51588;53.702;10.208;2022-08-25T00:45:21;3.83;;;2.70;;
64894;SDS011;51588;53.702;10.208;2022-08-25T00:47:48;3.10;;;2.80;;
64894;SDS011;51588;53.702;10.208;2022-08-25T00:50:15;2.97;;;2.70;;
64894;SDS011;51588;53.702;10.208;2022-08-25T00:52:45;2.83;;;2.63;;
64894;SDS011;51588;53.702;10.208;2022-08-25T00:55:15;3.40;;;3.10;;
64894;SDS011;51588;53.702;10.208;2022-08-25T00:57:47;3.43;;;3.00;;
64894;SDS011;51588;53.702;10.208;2022-08-25T01:00:20;3.60;;;2.90;;
64894;SDS011;51588;53.702;10.208;2022-08-25T01:02:49;3.60;;;2.83;;
64894;SDS011;51588;53.702;10.208;2022-08-25T01:05:16;3.10;;;2.90;;
64894;SDS011;51588;53.702;10.208;2022-08-25T01:07:44;3.70;;;3.30;;
64894;SDS011;51588;53.702;10.208;2022-08-25T01:10:13;3.10;;;2.87;;
64894;SDS011;51588;53.702;10.208;2022-08-25T01:12:41;3.70;;;3.13;;
64894;SDS011;51588;53.702;10.208;2022-08-25T01:15:10;3.30;;;3.00;;
64894;SDS011;51588;53.702;10.208;2022-08-25T01:17:39;2.80;;;2.60;;
64894;SDS011;51588;53.702;10.208;2022-08-25T01:20:12;3.40;;;2.90;;
64894;SDS011;51588;53.702;10.208;2022-08-25T01:22:40;3.67;;;3.00;;
64894;SDS011;51588;53.702;10.208;2022-08-25T01:25:11;3.13;;;2.67;;
64894;SDS011;51588;53.702;10.208;2022-08-25T01:27:48;4.20;;;2.90;;
64894;SDS011;51588;53.702;10.208;2022-08-25T01:30:15;3.23;;;2.70;;
64894;SDS011;51588;53.702;10.208;2022-08-25T01:32:41;3.53;;;2.93;;
64894;SDS011;51588;53.702;10.208;2022-08-25T01:35:08;3.27;;;2.83;;
64894;SDS011;51588;53.702;10.208;2022-08-25T01:37:34;3.97;;;3.10;;
64894;SDS011;51588;53.702;10.208;2022-08-25T01:40:03;3.10;;;2.80;;
64894;SDS011;51588;53.702;10.208;2022-08-25T01:42:32;3.50;;;2.97;;
64894;SDS011;51588;53.702;10.208;2022-08-25T01:45:07;2.83;;;2.50;;
64894;SDS011;51588;53.702;10.208;2022-08-25T01:47:35;2.60;;;2.40;;
64894;SDS011;51588;53.702;10.208;2022-08-25T01:50:02;3.00;;;2.70;;
64894;SDS011;51588;53.702;10.208;2022-08-25T01:52:31;3.93;;;2.70;;
64894;SDS011;51588;53.702;10.208;2022-08-25T01:54:59;5.93;;;2.97;;
64894;SDS011;51588;53.702;10.208;2022-08-25T01:57:29;3.10;;;2.80;;
64894;SDS011;51588;53.702;10.208;2022-08-25T01:59:56;2.93;;;2.63;;
64894;SDS011;51588;53.702;10.208;2022-08-25T02:02:22;3.33;;;3.03;;
64894;SDS011;51588;53.702;10.208;2022-08-25T02:04:49;3.20;;;2.63;;
64894;SDS011;51588;53.702;10.208;2022-08-25T02:07:16;3.10;;;2.90;;
64894;SDS011;51588;53.702;10.208;2022-08-25T02:09:43;3.30;;;3.00;;
64894;SDS011;51588;53.702;10.208;2022-08-25T02:12:10;5.57;;;3.47;;
64894;SDS011;51588;53.702;10.208;2022-08-25T02:14:38;6.90;;;2.70;;
64894;SDS011;51588;53.702;10.208;2022-08-25T02:17:04;4.90;;;3.37;;
64894;SDS011;51588;53.702;10.208;2022-08-25T02:19:32;4.53;;;3.33;;
64894;SDS011;51588;53.702;10.208;2022-08-25T02:21:59;3.40;;;2.93;;
64894;SDS011;51588;53.702;10.208;2022-08-25T02:24:25;3.83;;;3.30;;
64894;SDS011;51588;53.702;10.208;2022-08-25T02:26:52;3.70;;;3.27;;
64894;SDS011;51588;53.702;10.208;2022-08-25T02:29:19;3.20;;;2.90;;
64894;SDS011;51588;53.702;10.208;2022-08-25T02:31:47;2.90;;;2.70;;
64894;SDS011;51588;53.702;10.208;2022-08-25T02:34:13;3.20;;;2.90;;
64894;SDS011;51588;53.702;10.208;2022-08-25T02:36:40;3.83;;;2.93;;
64894;SDS011;51588;53.702;10.208;2022-08-25T02:39:07;3.47;;;3.17;;
64894;SDS011;51588;53.702;10.208;2022-08-25T02:41:35;3.17;;;2.80;;
64894;SDS011;51588;53.702;10.208;2022-08-25T02:44:03;2.90;;;2.70;;
64894;SDS011;51588;53.702;10.208;2022-08-25T02:46:31;3.63;;;3.27;;
64894;SDS011;51588;53.702;10.208;2022-08-25T02:48:59;3.23;;;2.93;;
64894;SDS011;51588;53.702;10.208;2022-08-25T02:51:26;3.40;;;3.10;;
64894;SDS011;51588;53.702;10.208;2022-08-25T02:53:54;3.27;;;2.77;;
64894;SDS011;51588;53.702;10.208;2022-08-25T02:56:22;3.93;;;3.00;;
64894;SDS011;51588;53.702;10.208;2022-08-25T02:58:48;3.70;;;3.10;;
64894;SDS011;51588;53.702;10.208;2022-08-25T03:01:15;3.43;;;2.97;;
64894;SDS011;51588;53.702;10.208;2022-08-25T03:03:42;3.63;;;3.30;;
64894;SDS011;51588;53.702;10.208;2022-08-25T03:06:13;3.70;;;3.40;;
64894;SDS011;51588;53.702;10.208;2022-08-25T03:08:42;3.20;;;2.90;;
64894;SDS011;51588;53.702;10.208;2022-08-25T03:11:09;3.23;;;2.80;;
64894;SDS011;51588;53.702;10.208;2022-08-25T03:13:36;2.80;;;2.60;;
64894;SDS011;51588;53.702;10.208;2022-08-25T03:16:03;3.23;;;2.93;;
64894;SDS011;51588;53.702;10.208;2022-08-25T03:18:32;3.00;;;2.70;;
64894;SDS011;51588;53.702;10.208;2022-08-25T03:20:59;3.40;;;3.10;;
64894;SDS011;51588;53.702;10.208;2022-08-25T03:23:28;3.13;;;2.87;;
64894;SDS011;51588;53.702;10.208;2022-08-25T03:25:55;3.40;;;3.10;;
64894;SDS011;51588;53.702;10.208;2022-08-25T03:28:39;4.03;;;2.60;;
64894;SDS011;51588;53.702;10.208;2022-08-25T03:31:06;3.07;;;2.77;;
64894;SDS011;51588;53.702;10.208;2022-08-25T03:33:33;3.50;;;3.10;;
64894;SDS011;51588;53.702;10.208;2022-08-25T03:36:00;3.70;;;3.10;;
64894;SDS011;51588;53.702;10.208;2022-08-25T03:38:29;3.93;;;2.80;;
64894;SDS011;51588;53.702;10.208;2022-08-25T03:40:55;3.43;;;2.97;;
64894;SDS011;51588;53.702;10.208;2022-08-25T03:43:22;3.77;;;3.17;;
64894;SDS011;51588;53.702;10.208;2022-08-25T03:45:49;3.40;;;2.97;;
64894;SDS011;51588;53.702;10.208;2022-08-25T03:48:15;3.80;;;3.03;;
64894;SDS011;51588;53.702;10.208;2022-08-25T03:50:43;3.90;;;3.40;;
64894;SDS011;51588;53.702;10.208;2022-08-25T03:53:10;3.07;;;2.73;;
64894;SDS011;51588;53.702;10.208;2022-08-25T03:55:38;3.33;;;3.00;;
64894;SDS011;51588;53.702;10.208;2022-08-25T03:58:05;4.23;;;2.93;;
64894;SDS011;51588;53.702;10.208;2022-08-25T04:00:32;3.10;;;2.67;;
64894;SDS011;51588;53.702;10.208;2022-08-25T04:02:58;2.90;;;2.70;;
64894;SDS011;51588;53.702;10.208;2022-08-25T04:05:25;3.30;;;3.00;;
64894;SDS011;51588;53.702;10.208;2022-08-25T04:07:52;3.23;;;2.93;;
64894;SDS011;51588;53.702;10.208;2022-08-25T04:10:18;3.70;;;3.10;;
64894;SDS011;51588;53.702;10.208;2022-08-25T04:12:46;3.20;;;2.90;;
64894;SDS011;51588;53.702;10.208;2022-08-25T04:15:13;3.33;;;3.00;;
64894;SDS011;51588;53.702;10.208;2022-08-25T04:17:40;3.40;;;3.10;;
64894;SDS011;51588;53.702;10.208;2022-08-25T04:20:08;3.50;;;3.20;;
64894;SDS011;51588;53.702;10.208;2022-08-25T04:22:36;2.87;;;2.67;;
64894;SDS011;51588;53.702;10.208;2022-08-25T04:25:03;4.20;;;3.47;;
64894;SDS011;51588;53.702;10.208;2022-08-25T04:27:31;5.03;;;3.60;;
64894;SDS011;51588;53.702;10.208;2022-08-25T04:29:59;3.87;;;3.57;;
64894;SDS011;51588;53.702;10.208;2022-08-25T04:32:25;4.87;;;3.40;;
64894;SDS011;51588;53.702;10.208;2022-08-25T04:34:52;3.70;;;3.20;;
64894;SDS011;51588;53.702;10.208;2022-08-25T04:37:19;3.50;;;3.20;;
64894;SDS011;51588;53.702;10.208;2022-08-25T04:39:45;4.17;;;3.47;;
64894;SDS011;51588;53.702;10.208;2022-08-25T04:42:12;3.80;;;3.33;;
64894;SDS011;51588;53.702;10.208;2022-08-25T04:44:38;3.77;;;3.30;;
64894;SDS011;51588;53.702;10.208;2022-08-25T04:47:07;3.20;;;2.90;;
64894;SDS011;51588;53.702;10.208;2022-08-25T04:49:34;3.80;;;3.50;;
64894;SDS011;51588;53.702;10.208;2022-08-25T04:52:01;3.50;;;3.20;;
64894;SDS011;51588;53.702;10.208;2022-08-25T04:54:28;4.00;;;3.70;;
64894;SDS011;51588;53.702;10.208;2022-08-25T04:56:54;4.30;;;3.90;;
64894;SDS011;51588;53.702;10.208;2022-08-25T04:59:21;4.17;;;3.77;;
64894;SDS011;51588;53.702;10.208;2022-08-25T05:01:47;3.90;;;3.13;;
64894;SDS011;51588;53.702;10.208;2022-08-25T05:04:18;3.60;;;3.30;;
64894;SDS011;51588;53.702;10.208;2022-08-25T05:06:46;3.70;;;3.40;;
64894;SDS011;51588;53.702;10.208;2022-08-25T05:09:13;4.23;;;3.40;;
64894;SDS011;51588;53.702;10.208;2022-08-25T05:11:39;4.00;;;3.67;;
64894;SDS011;51588;53.702;10.208;2022-08-25T05:14:06;3.77;;;3.47;;
64894;SDS011;51588;53.702;10.208;2022-08-25T05:16:36;4.63;;;3.97;;
64894;SDS011;51588;53.702;10.208;2022-08-25T05:19:03;4.90;;;4.40;;
64894;SDS011;51588;53.702;10.208;2022-08-25T05:21:32;4.77;;;4.00;;
64894;SDS011;51588;53.702;10.208;2022-08-25T05:23:59;4.93;;;4.47;;
64894;SDS011;51588;53.702;10.208;2022-08-25T05:26:28;5.37;;;3.50;;
64894;SDS011;51588;53.702;10.208;2022-08-25T05:28:56;4.00;;;3.60;;
64894;SDS011;51588;53.702;10.208;2022-08-25T05:31:23;6.23;;;4.57;;
64894;SDS011;51588;53.702;10.208;2022-08-25T05:33:51;4.70;;;4.30;;
64894;SDS011;51588;53.702;10.208;2022-08-25T05:36:19;4.40;;;4.00;;
64894;SDS011;51588;53.702;10.208;2022-08-25T05:38:48;4.50;;;4.10;;
64894;SDS011;51588;53.702;10.208;2022-08-25T05:41:16;4.77;;;4.37;;
64894;SDS011;51588;53.702;10.208;2022-08-25T05:43:44;5.23;;;4.20;;
64894;SDS011;51588;53.702;10.208;2022-08-25T05:46:13;4.63;;;4.13;;
64894;SDS011;51588;53.702;10.208;2022-08-25T05:48:40;5.83;;;4.20;;
64894;SDS011;51588;53.702;10.208;2022-08-25T05:51:08;4.70;;;4.30;;
64894;SDS011;51588;53.702;10.208;2022-08-25T05:53:36;4.47;;;4.00;;
64894;SDS011;51588;53.702;10.208;2022-08-25T05:56:09;5.57;;;4.20;;
64894;SDS011;51588;53.702;10.208;2022-08-25T05:58:37;4.40;;;4.07;;
64894;SDS011;51588;53.702;10.208;2022-08-25T06:01:05;4.63;;;4.23;;
64894;SDS011;51588;53.702;10.208;2022-08-25T06:03:46;4.27;;;3.87;;
64894;SDS011;51588;53.702;10.208;2022-08-25T06:06:13;4.60;;;4.20;;
64894;SDS011;51588;53.702;10.208;2022-08-25T06:08:40;4.33;;;3.93;;
64894;SDS011;51588;53.702;10.208;2022-08-25T06:11:06;4.60;;;4.20;;
64894;SDS011;51588;53.702;10.208;2022-08-25T06:13:34;6.83;;;4.90;;
64894;SDS011;51588;53.702;10.208;2022-08-25T06:16:01;4.87;;;4.20;;
64894;SDS011;51588;53.702;10.208;2022-08-25T06:18:28;9.63;;;5.27;;
64894;SDS011;51588;53.702;10.208;2022-08-25T06:20:54;12.50;;;5.70;;
64894;SDS011;51588;53.702;10.208;2022-08-25T06:23:21;34.97;;;11.33;;
64894;SDS011;51588;53.702;10.208;2022-08-25T06:25:48;28.23;;;8.50;;
64894;SDS011;51588;53.702;10.208;2022-08-25T06:28:15;28.87;;;10.63;;
64894;SDS011;51588;53.702;10.208;2022-08-25T06:30:43;19.73;;;9.10;;
64894;SDS011;51588;53.702;10.208;2022-08-25T06:33:10;30.60;;;9.73;;
64894;SDS011;51588;53.702;10.208;2022-08-25T06:35:39;24.30;;;9.60;;
64894;SDS011;51588;53.702;10.208;2022-08-25T06:38:06;18.00;;;9.30;;
64894;SDS011;51588;53.702;10.208;2022-08-25T06:40:32;11.60;;;8.10;;
64894;SDS011;51588;53.702;10.208;2022-08-25T06:42:59;10.43;;;8.03;;
64894;SDS011;51588;53.702;10.208;2022-08-25T06:45:26;12.90;;;7.93;;
64894;SDS011;51588;53.702;10.208;2022-08-25T06:47:55;13.57;;;9.63;;
64894;SDS011;51588;53.702;10.208;2022-08-25T06:50:23;12.63;;;8.63;;
64894;SDS011;51588;53.702;10.208;2022-08-25T06:52:49;16.83;;;7.97;;
64894;SDS011;51588;53.702;10.208;2022-08-25T06:55:16;15.87;;;7.67;;
64894;SDS011;51588;53.702;10.208;2022-08-25T06:57:43;16.00;;;8.40;;
64894;SDS011;51588;53.702;10.208;2022-08-25T07:00:11;12.80;;;8.10;;
64894;SDS011;51588;53.702;10.208;2022-08-25T07:02:37;11.37;;;8.00;;
64894;SDS011;51588;53.702;10.208;2022-08-25T07:05:06;10.53;;;8.07;;
64894;SDS011;51588;53.702;10.208;2022-08-25T07:07:33;13.40;;;9.20;;
64894;SDS011;51588;53.702;10.208;2022-08-25T07:10:00;14.57;;;8.27;;
64894;SDS011;51588;53.702;10.208;2022-08-25T07:12:26;10.73;;;7.67;;
64894;SDS011;51588;53.702;10.208;2022-08-25T07:14:53;9.33;;;7.50;;
64894;SDS011;51588;53.702;10.208;2022-08-25T07:17:20;12.10;;;7.57;;
64894;SDS011;51588;53.702;10.208;2022-08-25T07:19:47;13.77;;;7.90;;
64894;SDS011;51588;53.702;10.208;2022-08-25T07:22:15;11.13;;;8.00;;
64894;SDS011;51588;53.702;10.208;2022-08-25T07:24:42;11.67;;;8.00;;
64894;SDS011;51588;53.702;10.208;2022-08-25T07:27:08;12.70;;;7.27;;
64894;SDS011;51588;53.702;10.208;2022-08-25T07:29:35;13.40;;;7.00;;
64894;SDS011;51588;53.702;10.208;2022-08-25T07:32:03;12.13;;;7.67;;
64894;SDS011;51588;53.702;10.208;2022-08-25T07:34:30;11.23;;;7.07;;
64894;SDS011;51588;53.702;10.208;2022-08-25T07:37:17;8.17;;;6.40;;
64894;SDS011;51588;53.702;10.208;2022-08-25T07:39:45;9.83;;;6.33;;
64894;SDS011;51588;53.702;10.208;2022-08-25T07:42:11;8.10;;;6.80;;
64894;SDS011;51588;53.702;10.208;2022-08-25T07:44:38;8.33;;;6.40;;
64894;SDS011;51588;53.702;10.208;2022-08-25T07:47:05;12.00;;;6.30;;
64894;SDS011;51588;53.702;10.208;2022-08-25T07:49:31;8.27;;;6.60;;
64894;SDS011;51588;53.702;10.208;2022-08-25T07:51:58;8.67;;;6.47;;
64894;SDS011;51588;53.702;10.208;2022-08-25T07:54:26;8.83;;;6.80;;
64894;SDS011;51588;53.702;10.208;2022-08-25T07:56:52;8.80;;;6.33;;
64894;SDS011;51588;53.702;10.208;2022-08-25T07:59:19;10.07;;;6.70;;
64894;SDS011;51588;53.702;10.208;2022-08-25T08:01:45;8.63;;;7.20;;
64894;SDS011;51588;53.702;10.208;2022-08-25T08:04:12;6.30;;;5.70;;
64894;SDS011;51588;53.702;10.208;2022-08-25T08:06:38;7.57;;;5.93;;
64894;SDS011;51588;53.702;10.208;2022-08-25T08:09:05;10.13;;;8.00;;
64894;SDS011;51588;53.702;10.208;2022-08-25T08:11:33;9.47;;;7.90;;
64894;SDS011;51588;53.702;10.208;2022-08-25T08:14:05;12.10;;;10.20;;
64894;SDS011;51588;53.702;10.208;2022-08-25T08:16:32;19.80;;;11.30;;
64894;SDS011;51588;53.702;10.208;2022-08-25T08:18:59;16.73;;;11.37;;
64894;SDS011;51588;53.702;10.208;2022-08-25T08:21:27;24.00;;;12.20;;
64894;SDS011;51588;53.702;10.208;2022-08-25T08:23:56;13.20;;;10.30;;
64894;SDS011;51588;53.702;10.208;2022-08-25T08:26:24;18.00;;;13.30;;
64894;SDS011;51588;53.702;10.208;2022-08-25T08:28:52;19.17;;;12.70;;
64894;SDS011;51588;53.702;10.208;2022-08-25T08:31:19;16.83;;;13.30;;
64894;SDS011;51588;53.702;10.208;2022-08-25T08:33:47;15.27;;;12.50;;
64894;SDS011;51588;53.702;10.208;2022-08-25T08:36:16;15.10;;;12.40;;
64894;SDS011;51588;53.702;10.208;2022-08-25T08:38:43;16.70;;;12.10;;
64894;SDS011;51588;53.702;10.208;2022-08-25T08:41:13;13.63;;;12.00;;
64894;SDS011;51588;53.702;10.208;2022-08-25T08:44:20;14.43;;;12.20;;
64894;SDS011;51588;53.702;10.208;2022-08-25T08:46:55;16.70;;;11.97;;
64894;SDS011;51588;53.702;10.208;2022-08-25T08:49:29;13.20;;;10.90;;
64894;SDS011;51588;53.702;10.208;2022-08-25T08:52:00;12.57;;;10.33;;
64894;SDS011;51588;53.702;10.208;2022-08-25T08:54:30;11.90;;;8.87;;
64894;SDS011;51588;53.702;10.208;2022-08-25T08:57:02;11.23;;;8.60;;
64894;SDS011;51588;53.702;10.208;2022-08-25T08:59:36;12.10;;;9.33;;
64894;SDS011;51588;53.702;10.208;2022-08-25T09:02:11;15.53;;;8.83;;
64894;SDS011;51588;53.702;10.208;2022-08-25T09:04:42;10.43;;;7.73;;
64894;SDS011;51588;53.702;10.208;2022-08-25T09:07:13;11.33;;;7.60;;
64894;SDS011;51588;53.702;10.208;2022-08-25T09:09:44;11.87;;;7.23;;
64894;SDS011;51588;53.702;10.208;2022-08-25T09:12:12;9.20;;;6.80;;
64894;SDS011;51588;53.702;10.208;2022-08-25T09:14:52;12.17;;;7.90;;
64894;SDS011;51588;53.702;10.208;2022-08-25T09:17:33;9.67;;;6.80;;
64894;SDS011;51588;53.702;10.208;2022-08-25T09:20:16;8.50;;;7.00;;
64894;SDS011;51588;53.702;10.208;2022-08-25T09:23:00;11.37;;;6.90;;
64894;SDS011;51588;53.702;10.208;2022-08-25T09:25:34;8.30;;;7.00;;
64894;SDS011;51588;53.702;10.208;2022-08-25T09:28:12;10.37;;;6.90;;
64894;SDS011;51588;53.702;10.208;2022-08-25T09:30:48;10.87;;;6.30;;
64894;SDS011;51588;53.702;10.208;2022-08-25T09:33:19;12.07;;;7.63;;
64894;SDS011;51588;53.702;10.208;2022-08-25T09:35:48;8.00;;;6.33;;
64894;SDS011;51588;53.702;10.208;2022-08-25T09:38:16;8.07;;;6.53;;
64894;SDS011;51588;53.702;10.208;2022-08-25T09:40:46;7.03;;;5.90;;
64894;SDS011;51588;53.702;10.208;2022-08-25T09:43:18;6.87;;;5.73;;
64894;SDS011;51588;53.702;10.208;2022-08-25T09:45:49;7.93;;;5.67;;
64894;SDS011;51588;53.702;10.208;2022-08-25T09:48:25;8.17;;;5.53;;
64894;SDS011;51588;53.702;10.208;2022-08-25T09:50:54;8.00;;;5.93;;
64894;SDS011;51588;53.702;10.208;2022-08-25T09:53:24;9.93;;;5.57;;
64894;SDS011;51588;53.702;10.208;2022-08-25T09:55:54;7.17;;;5.30;;
64894;SDS011;51588;53.702;10.208;2022-08-25T09:58:24;9.10;;;6.20;;
64894;SDS011;51588;53.702;10.208;2022-08-25T10:01:10;6.70;;;5.40;;
64894;SDS011;51588;53.702;10.208;2022-08-25T10:03:52;11.00;;;6.07;;
64894;SDS011;51588;53.702;10.208;2022-08-25T10:06:20;8.63;;;7.10;;
64894;SDS011;51588;53.702;10.208;2022-08-25T10:08:50;7.57;;;5.80;;
64894;SDS011;51588;53.702;10.208;2022-08-25T10:11:28;10.67;;;6.30;;
64894;SDS011;51588;53.702;10.208;2022-08-25T10:14:00;13.30;;;6.00;;
64894;SDS011;51588;53.702;10.208;2022-08-25T10:16:29;7.77;;;6.33;;
64894;SDS011;51588;53.702;10.208;2022-08-25T10:19:01;16.80;;;6.63;;
64894;SDS011;51588;53.702;10.208;2022-08-25T10:21:31;8.03;;;5.20;;
64894;SDS011;51588;53.702;10.208;2022-08-25T10:23:58;7.83;;;5.90;;
64894;SDS011;51588;53.702;10.208;2022-08-25T10:26:29;8.10;;;6.40;;
64894;SDS011;51588;53.702;10.208;2022-08-25T10:29:04;9.97;;;5.70;;
64894;SDS011;51588;53.702;10.208;2022-08-25T10:31:42;6.43;;;5.73;;
64894;SDS011;51588;53.702;10.208;2022-08-25T10:34:21;7.10;;;5.30;;
64894;SDS011;51588;53.702;10.208;2022-08-25T10:37:02;9.27;;;5.70;;
64894;SDS011;51588;53.702;10.208;2022-08-25T10:39:38;11.77;;;6.10;;
64894;SDS011;51588;53.702;10.208;2022-08-25T10:42:10;9.67;;;5.40;;
64894;SDS011;51588;53.702;10.208;2022-08-25T10:44:48;6.83;;;5.63;;
64894;SDS011;51588;53.702;10.208;2022-08-25T10:47:58;9.27;;;5.33;;
64894;SDS011;51588;53.702;10.208;2022-08-25T10:50:43;7.70;;;5.67;;
64894;SDS011;51588;53.702;10.208;2022-08-25T10:53:17;8.30;;;5.00;;
64894;SDS011;51588;53.702;10.208;2022-08-25T10:55:55;7.03;;;5.60;;
64894;SDS011;51588;53.702;10.208;2022-08-25T10:58:32;7.80;;;5.87;;
64894;SDS011;51588;53.702;10.208;2022-08-25T11:01:26;6.20;;;5.23;;
64894;SDS011;51588;53.702;10.208;2022-08-25T11:04:05;8.10;;;5.00;;
64894;SDS011;51588;53.702;10.208;2022-08-25T11:06:37;7.63;;;5.40;;
64894;SDS011;51588;53.702;10.208;2022-08-25T11:09:11;9.60;;;5.60;;
64894;SDS011;51588;53.702;10.208;2022-08-25T11:11:43;7.23;;;5.10;;
64894;SDS011;51588;53.702;10.208;2022-08-25T11:14:15;6.77;;;4.53;;
64894;SDS011;51588;53.702;10.208;2022-08-25T11:16:47;6.87;;;5.20;;
64894;SDS011;51588;53.702;10.208;2022-08-25T11:19:19;8.00;;;5.20;;
64894;SDS011;51588;53.702;10.208;2022-08-25T11:21:51;9.80;;;5.40;;
64894;SDS011;51588;53.702;10.208;2022-08-25T11:24:28;7.80;;;6.10;;
64894;SDS011;51588;53.702;10.208;2022-08-25T11:27:03;9.13;;;5.70;;
64894;SDS011;51588;53.702;10.208;2022-08-25T11:29:32;5.93;;;5.30;;
64894;SDS011;51588;53.702;10.208;2022-08-25T11:32:03;7.43;;;5.43;;
64894;SDS011;51588;53.702;10.208;2022-08-25T11:34:32;7.87;;;5.00;;
64894;SDS011;51588;53.702;10.208;2022-08-25T11:37:02;5.40;;;4.30;;
64894;SDS011;51588;53.702;10.208;2022-08-25T11:39:39;6.80;;;4.00;;
64894;SDS011;51588;53.702;10.208;2022-08-25T11:42:24;8.33;;;4.80;;
64894;SDS011;51588;53.702;10.208;2022-08-25T11:45:02;6.20;;;4.60;;
64894;SDS011;51588;53.702;10.208;2022-08-25T11:47:44;5.60;;;4.00;;
64894;SDS011;51588;53.702;10.208;2022-08-25T11:50:26;6.33;;;4.43;;
64894;SDS011;51588;53.702;10.208;2022-08-25T11:52:55;4.60;;;3.93;;
64894;SDS011;51588;53.702;10.208;2022-08-25T11:55:26;4.83;;;3.73;;
64894;SDS011;51588;53.702;10.208;2022-08-25T12:12:58;4.70;;;3.77;;
64894;SDS011;51588;53.702;10.208;2022-08-25T12:15:27;4.30;;;3.90;;
64894;SDS011;51588;53.702;10.208;2022-08-25T12:18:10;3.77;;;3.40;;
64894;SDS011;51588;53.702;10.208;2022-08-25T12:23:39;4.80;;;3.80;;
64894;SDS011;51588;53.702;10.208;2022-08-25T12:26:08;4.10;;;3.50;;
64894;SDS011;51588;53.702;10.208;2022-08-25T12:28:50;5.90;;;3.97;;
64894;SDS011;51588;53.702;10.208;2022-08-25T12:31:33;5.50;;;3.93;;
64894;SDS011;51588;53.702;10.208;2022-08-25T12:34:20;5.10;;;4.53;;
64894;SDS011;51588;53.702;10.208;2022-08-25T12:37:01;4.30;;;3.90;;
64894;SDS011;51588;53.702;10.208;2022-08-25T12:39:32;9.53;;;5.40;;
64894;SDS011;51588;53.702;10.208;2022-08-25T12:42:03;6.57;;;4.40;;
64894;SDS011;51588;53.702;10.208;2022-08-25T12:44:36;9.53;;;4.27;;
64894;SDS011;51588;53.702;10.208;2022-08-25T12:47:06;7.75;;;4.35;;
64894;SDS011;51588;53.702;10.208;2022-08-25T12:49:38;7.67;;;4.77;;
64894;SDS011;51588;53.702;10.208;2022-08-25T12:52:06;9.30;;;4.47;;
64894;SDS011;51588;53.702;10.208;2022-08-25T12:54:41;5.67;;;3.97;;
64894;SDS011;51588;53.702;10.208;2022-08-25T12:57:22;8.98;;;4.50;;
64894;SDS011;51588;53.702;10.208;2022-08-25T13:00:16;5.10;;;3.70;;
64894;SDS011;51588;53.702;10.208;2022-08-25T13:02:59;4.93;;;4.10;;
64894;SDS011;51588;53.702;10.208;2022-08-25T13:05:51;7.70;;;3.57;;
64894;SDS011;51588;53.702;10.208;2022-08-25T13:08:27;4.40;;;3.80;;
64894;SDS011;51588;53.702;10.208;2022-08-25T13:11:12;4.63;;;3.60;;
64894;SDS011;51588;53.702;10.208;2022-08-25T13:13:46;6.13;;;3.77;;
64894;SDS011;51588;53.702;10.208;2022-08-25T13:16:17;5.83;;;4.07;;
64894;SDS011;51588;53.702;10.208;2022-08-25T13:18:45;7.33;;;4.00;;
64894;SDS011;51588;53.702;10.208;2022-08-25T13:21:13;5.00;;;3.73;;
64894;SDS011;51588;53.702;10.208;2022-08-25T13:23:44;6.60;;;3.87;;
64894;SDS011;51588;53.702;10.208;2022-08-25T13:26:14;5.50;;;4.30;;
64894;SDS011;51588;53.702;10.208;2022-08-25T13:28:49;12.40;;;4.07;;
64894;SDS011;51588;53.702;10.208;2022-08-25T13:31:19;4.57;;;3.63;;
64894;SDS011;51588;53.702;10.208;2022-08-25T13:33:51;6.17;;;3.77;;
64894;SDS011;51588;53.702;10.208;2022-08-25T13:36:19;5.50;;;3.50;;
64894;SDS011;51588;53.702;10.208;2022-08-25T13:39:10;4.10;;;3.57;;
64894;SDS011;51588;53.702;10.208;2022-08-25T13:41:44;4.53;;;3.40;;
64894;SDS011;51588;53.702;10.208;2022-08-25T13:44:12;3.77;;;3.47;;
64894;SDS011;51588;53.702;10.208;2022-08-25T13:46:40;4.10;;;3.20;;
64894;SDS011;51588;53.702;10.208;2022-08-25T13:49:08;3.50;;;3.20;;
64894;SDS011;51588;53.702;10.208;2022-08-25T13:51:35;5.43;;;3.23;;
64894;SDS011;51588;53.702;10.208;2022-08-25T13:54:04;3.83;;;3.50;;
64894;SDS011;51588;53.702;10.208;2022-08-25T13:56:34;5.03;;;3.57;;
64894;SDS011;51588;53.702;10.208;2022-08-25T13:59:04;3.83;;;3.43;;
64894;SDS011;51588;53.702;10.208;2022-08-25T14:01:44;8.63;;;4.27;;
64894;SDS011;51588;53.702;10.208;2022-08-25T14:04:19;9.40;;;4.47;;
64894;SDS011;51588;53.702;10.208;2022-08-25T14:06:52;6.67;;;4.60;;
64894;SDS011;51588;53.702;10.208;2022-08-25T14:09:36;7.67;;;4.33;;
64894;SDS011;51588;53.702;10.208;2022-08-25T14:12:04;7.27;;;4.30;;
64894;SDS011;51588;53.702;10.208;2022-08-25T14:14:33;5.27;;;3.60;;
64894;SDS011;51588;53.702;10.208;2022-08-25T14:17:01;5.20;;;4.40;;
64894;SDS011;51588;53.702;10.208;2022-08-25T14:19:30;5.50;;;4.20;;
64894;SDS011;51588;53.702;10.208;2022-08-25T14:21:57;8.90;;;4.20;;
64894;SDS011;51588;53.702;10.208;2022-08-25T14:24:26;7.17;;;4.07;;
64894;SDS011;51588;53.702;10.208;2022-08-25T14:26:56;6.80;;;4.00;;
64894;SDS011;51588;53.702;10.208;2022-08-25T14:29:22;9.13;;;4.10;;
64894;SDS011;51588;53.702;10.208;2022-08-25T14:31:50;7.03;;;4.50;;
64894;SDS011;51588;53.702;10.208;2022-08-25T14:34:18;6.43;;;4.53;;
64894;SDS011;51588;53.702;10.208;2022-08-25T14:36:47;5.07;;;4.17;;
64894;SDS011;51588;53.702;10.208;2022-08-25T14:39:14;6.50;;;4.63;;
64894;SDS011;51588;53.702;10.208;2022-08-25T14:41:42;9.80;;;4.70;;
64894;SDS011;51588;53.702;10.208;2022-08-25T14:44:10;5.50;;;4.60;;
64894;SDS011;51588;53.702;10.208;2022-08-25T14:46:39;7.47;;;4.50;;
64894;SDS011;51588;53.702;10.208;2022-08-25T14:49:11;11.10;;;5.13;;
64894;SDS011;51588;53.702;10.208;2022-08-25T14:51:43;5.33;;;4.17;;
64894;SDS011;51588;53.702;10.208;2022-08-25T14:54:10;5.67;;;4.73;;
64894;SDS011;51588;53.702;10.208;2022-08-25T14:56:39;6.30;;;3.77;;
64894;SDS011;51588;53.702;10.208;2022-08-25T14:59:06;5.97;;;4.80;;
64894;SDS011;51588;53.702;10.208;2022-08-25T15:01:33;6.40;;;5.00;;
64894;SDS011;51588;53.702;10.208;2022-08-25T15:04:00;6.80;;;3.90;;
64894;SDS011;51588;53.702;10.208;2022-08-25T15:06:31;6.13;;;4.60;;